createdAt,value
2023-04-18T00:00:05.619Z,12.48
2023-04-18T00:02:09.133Z,12.55
2023-04-18T00:04:13.482Z,12.63
2023-04-18T00:06:17.032Z,12.69
2023-04-18T00:08:19.867Z,12.68
2023-04-18T00:10:22.701Z,12.74
2023-04-18T00:12:27.096Z,12.79
2023-04-18T00:14:30.047Z,12.82
2023-04-18T00:16:33.052Z,12.84
2023-04-18T00:18:37.149Z,12.86
2023-04-18T00:20:40.105Z,12.85
2023-04-18T00:22:43.903Z,12.83
2023-04-18T00:24:46.687Z,12.86
2023-04-18T00:26:49.867Z,12.86
2023-04-18T00:28:53.964Z,12.83
2023-04-18T00:30:56.954Z,12.83
2023-04-18T00:33:00.291Z,12.82
2023-04-18T00:35:04.031Z,12.85
2023-04-18T00:37:07.241Z,12.87
2023-04-18T00:39:10.018Z,12.87
2023-04-18T00:41:12.779Z,12.84
2023-04-18T00:43:16.036Z,12.81
2023-04-18T00:45:20.507Z,12.83
2023-04-18T00:47:23.332Z,12.87
2023-04-18T00:49:28.053Z,12.89
2023-04-18T00:51:30.987Z,12.91
2023-04-18T00:53:33.741Z,12.87
2023-04-18T00:55:36.747Z,12.79
2023-04-18T00:57:39.885Z,12.78
2023-04-18T00:59:43.416Z,12.76
2023-04-18T01:01:48.098Z,12.66
2023-04-18T01:03:52.367Z,12.61
2023-04-18T01:05:57.375Z,12.60
2023-04-18T01:08:01.235Z,12.58
2023-04-18T01:10:04.832Z,12.58
2023-04-18T01:12:07.781Z,12.58
2023-04-18T01:14:10.649Z,12.54
2023-04-18T01:16:13.637Z,12.52
2023-04-18T01:18:18.400Z,12.42
2023-04-18T01:20:22.687Z,12.34
2023-04-18T01:22:25.671Z,12.31
2023-04-18T01:24:31.760Z,12.26
2023-04-18T01:26:34.772Z,12.29
2023-04-18T01:28:38.252Z,12.32
2023-04-18T01:30:41.548Z,12.30
2023-04-18T01:32:45.750Z,12.29
2023-04-18T01:34:48.660Z,12.21
2023-04-18T01:36:51.568Z,12.18
2023-04-18T01:38:56.811Z,12.20
2023-04-18T01:41:00.971Z,12.20
2023-04-18T01:43:03.727Z,12.28
2023-04-18T01:45:07.610Z,12.24
2023-04-18T01:47:10.712Z,12.28
2023-04-18T01:49:13.643Z,12.34
2023-04-18T01:51:16.412Z,12.30
2023-04-18T01:53:19.212Z,12.35
2023-04-18T01:55:22.208Z,12.29
2023-04-18T01:57:26.600Z,12.28
2023-04-18T01:59:29.351Z,12.24
2023-04-18T02:01:32.196Z,12.26
2023-04-18T02:03:35.385Z,12.30
2023-04-18T02:05:38.278Z,12.34
2023-04-18T02:07:42.682Z,12.36
2023-04-18T02:09:45.996Z,12.38
2023-04-18T02:11:48.855Z,12.41
2023-04-18T02:13:53.455Z,12.44
2023-04-18T02:15:56.309Z,12.53
2023-04-18T02:17:59.967Z,12.57
2023-04-18T02:20:02.790Z,12.57
2023-04-18T02:22:05.751Z,12.61
2023-04-18T02:24:09.848Z,12.64
2023-04-18T02:26:12.682Z,12.66
2023-04-18T02:28:15.483Z,12.69
2023-04-18T02:30:19.801Z,12.71
2023-04-18T02:32:22.590Z,12.73
2023-04-18T02:34:25.518Z,12.76
2023-04-18T02:36:28.383Z,12.74
2023-04-18T02:38:31.763Z,12.74
2023-04-18T02:40:34.906Z,12.74
2023-04-18T02:42:37.618Z,12.77
2023-04-18T02:44:40.328Z,12.75
2023-04-18T02:46:44.590Z,12.73
2023-04-18T02:48:47.427Z,12.75
2023-04-18T02:50:50.266Z,12.79
2023-04-18T02:52:53.103Z,12.81
2023-04-18T02:54:55.793Z,12.83
2023-04-18T02:56:58.524Z,12.82
2023-04-18T02:59:01.783Z,12.81
2023-04-18T03:01:04.632Z,12.85
2023-04-18T03:03:09.027Z,12.87
2023-04-18T03:05:12.313Z,12.86
2023-04-18T03:07:15.260Z,12.88
2023-04-18T03:09:18.036Z,12.88
2023-04-18T03:11:21.254Z,12.85
2023-04-18T03:13:24.148Z,12.84
2023-04-18T03:15:26.953Z,12.87
2023-04-18T03:17:29.912Z,12.87
2023-04-18T03:19:34.106Z,12.85
2023-04-18T03:21:36.884Z,12.83
2023-04-18T03:23:39.886Z,12.83
2023-04-18T03:25:42.702Z,12.83
2023-04-18T03:27:45.552Z,12.83
2023-04-18T03:29:48.455Z,12.83
2023-04-18T03:31:51.201Z,12.86
2023-04-18T03:33:53.887Z,12.86
2023-04-18T03:35:59.088Z,12.85
2023-04-18T03:38:01.928Z,12.87
2023-04-18T03:40:05.384Z,12.87
2023-04-18T03:42:08.320Z,12.90
2023-04-18T03:44:11.367Z,12.88
2023-04-18T03:46:14.384Z,12.85
2023-04-18T03:48:17.244Z,12.85
2023-04-18T03:50:20.327Z,12.85
2023-04-18T03:52:24.658Z,12.85
2023-04-18T03:54:29.333Z,12.82
2023-04-18T03:56:32.068Z,12.79
2023-04-18T03:58:34.825Z,12.80
2023-04-18T04:00:37.795Z,12.81
2023-04-18T04:02:40.761Z,12.79
2023-04-18T04:04:44.057Z,12.77
2023-04-18T04:06:47.203Z,12.75
2023-04-18T04:08:51.350Z,12.72
2023-04-18T04:10:54.108Z,12.72
2023-04-18T04:12:57.188Z,12.74
2023-04-18T04:14:59.978Z,12.73
2023-04-18T04:17:02.836Z,12.70
2023-04-18T04:19:06.177Z,12.70
2023-04-18T04:21:08.896Z,12.66
2023-04-18T04:23:11.774Z,12.65
2023-04-18T04:25:16.405Z,12.65
2023-04-18T04:27:20.478Z,12.65
2023-04-18T04:29:23.770Z,12.65
2023-04-18T04:31:26.754Z,12.65
2023-04-18T04:33:29.488Z,12.66
2023-04-18T04:35:34.686Z,12.62
2023-04-18T04:37:38.743Z,12.61
2023-04-18T04:39:41.541Z,12.59
2023-04-18T04:41:47.124Z,12.61
2023-04-18T04:43:51.126Z,12.61
2023-04-18T04:45:54.787Z,12.60
2023-04-18T04:47:58.795Z,12.59
2023-04-18T04:50:02.355Z,12.60
2023-04-18T04:52:05.250Z,12.62
2023-04-18T04:54:08.009Z,12.63
2023-04-18T04:56:11.134Z,12.64
2023-04-18T04:58:15.306Z,12.62
2023-04-18T05:00:20.808Z,12.62
2023-04-18T05:02:24.192Z,12.63
2023-04-18T05:04:27.353Z,12.61
2023-04-18T05:06:30.547Z,12.62
2023-04-18T05:08:33.322Z,12.62
2023-04-18T05:10:37.139Z,12.63
2023-04-18T05:12:40.020Z,12.64
2023-04-18T05:14:44.282Z,12.65
2023-04-18T05:16:47.533Z,12.67
2023-04-18T05:18:50.315Z,12.68
2023-04-18T05:20:53.293Z,12.67
2023-04-18T05:22:56.071Z,12.70
2023-04-18T05:24:58.822Z,12.73
2023-04-18T05:27:02.432Z,12.75
2023-04-18T05:29:05.388Z,12.75
2023-04-18T05:31:09.565Z,12.77
2023-04-18T05:33:12.485Z,12.77
2023-04-18T05:35:15.427Z,12.76
2023-04-18T05:37:18.173Z,12.75
2023-04-18T05:39:21.179Z,12.77
2023-04-18T05:41:25.360Z,12.79
2023-04-18T05:43:28.134Z,12.82
2023-04-18T05:45:31.092Z,12.85
2023-04-18T05:47:35.477Z,12.86
2023-04-18T05:49:38.295Z,12.85
2023-04-18T05:51:41.404Z,12.86
2023-04-18T05:53:44.302Z,12.90
2023-04-18T05:55:48.760Z,12.92
2023-04-18T05:57:51.565Z,12.92
2023-04-18T05:59:54.300Z,12.92
2023-04-18T06:01:58.281Z,12.95
2023-04-18T06:04:02.867Z,12.95
2023-04-18T06:06:07.212Z,12.95
2023-04-18T06:08:10.159Z,12.94
2023-04-18T06:10:14.528Z,12.97
2023-04-18T06:12:19.478Z,13.00
2023-04-18T06:14:22.452Z,13.00
2023-04-18T06:16:25.482Z,13.06
2023-04-18T06:18:28.386Z,13.09
2023-04-18T06:20:32.800Z,13.15
2023-04-18T06:22:35.756Z,13.19
2023-04-18T06:24:38.837Z,13.23
2023-04-18T06:26:42.100Z,13.27
2023-04-18T06:28:45.101Z,13.32
2023-04-18T06:30:47.897Z,13.35
2023-04-18T06:32:50.768Z,13.36
2023-04-18T06:34:54.840Z,13.34
2023-04-18T06:36:59.075Z,13.34
2023-04-18T06:39:02.018Z,13.34
2023-04-18T06:41:06.181Z,13.37
2023-04-18T06:43:09.169Z,13.37
2023-04-18T06:45:13.295Z,13.39
2023-04-18T06:47:16.175Z,13.40
2023-04-18T06:49:19.698Z,13.43
2023-04-18T06:51:22.807Z,13.47
2023-04-18T06:53:27.077Z,13.45
2023-04-18T06:55:31.692Z,13.44
2023-04-18T06:57:36.703Z,13.43
2023-04-18T06:59:44.549Z,13.43
2023-04-18T07:01:47.344Z,13.44
2023-04-18T07:03:50.861Z,13.45
2023-04-18T07:05:55.824Z,13.46
2023-04-18T07:07:58.806Z,13.48
2023-04-18T07:10:03.399Z,13.50
2023-04-18T07:12:07.167Z,13.51
2023-04-18T07:14:12.773Z,13.51
2023-04-18T07:16:15.935Z,13.54
2023-04-18T07:18:30.326Z,13.59
2023-04-18T07:20:40.530Z,13.61
2023-04-18T07:22:43.717Z,13.61
2023-04-18T07:24:46.734Z,13.62
2023-04-18T07:26:52.512Z,13.62
2023-04-18T07:28:57.566Z,13.65
2023-04-18T07:31:01.449Z,13.64
2023-04-18T07:33:04.429Z,13.61
2023-04-18T07:35:07.991Z,13.63
2023-04-18T07:37:12.547Z,13.63
2023-04-18T07:39:16.497Z,13.63
2023-04-18T07:41:19.324Z,13.66
2023-04-18T07:43:23.542Z,13.68
2023-04-18T07:45:26.618Z,13.70
2023-04-18T07:47:31.092Z,13.72
2023-04-18T07:49:34.868Z,13.74
2023-04-18T07:51:37.733Z,13.80
2023-04-18T07:53:41.770Z,13.85
2023-04-18T07:55:44.753Z,13.88
2023-04-18T07:57:50.280Z,13.83
2023-04-18T07:59:54.972Z,13.83
2023-04-18T08:01:57.992Z,13.82
2023-04-18T08:04:02.070Z,13.84
2023-04-18T08:06:05.814Z,13.84
2023-04-18T08:08:09.816Z,13.83
2023-04-18T08:10:12.970Z,13.82
2023-04-18T08:12:15.939Z,13.84
2023-04-18T08:14:19.045Z,13.84
2023-04-18T08:16:25.808Z,13.83
2023-04-18T08:18:28.984Z,13.84
2023-04-18T08:20:32.505Z,13.85
2023-04-18T08:22:39.306Z,13.84
2023-04-18T08:25:01.376Z,13.83
2023-04-18T08:27:07.289Z,13.82
2023-04-18T08:29:10.322Z,13.81
2023-04-18T08:31:17.243Z,13.82
2023-04-18T08:33:23.514Z,13.84
2023-04-18T08:35:26.543Z,13.86
2023-04-18T08:37:30.049Z,13.87
2023-04-18T08:39:32.985Z,13.89
2023-04-18T08:41:38.397Z,13.92
2023-04-18T08:43:41.382Z,13.93
2023-04-18T08:45:45.811Z,13.94
2023-04-18T08:47:49.064Z,13.93
2023-04-18T08:49:53.899Z,13.92
2023-04-18T08:51:57.628Z,13.91
2023-04-18T08:54:04.370Z,13.93
2023-04-18T08:56:10.710Z,13.93
2023-04-18T08:58:14.040Z,13.88
2023-04-18T09:00:19.428Z,13.84
2023-04-18T09:02:29.142Z,13.85
2023-04-18T09:04:37.482Z,13.85
2023-04-18T09:06:52.919Z,13.89
2023-04-18T09:08:58.925Z,13.90
2023-04-18T09:11:28.720Z,13.93
2023-04-18T09:13:41.296Z,13.96
2023-04-18T09:15:56.122Z,13.98
2023-04-18T09:18:00.378Z,13.97
2023-04-18T09:20:04.894Z,13.97
2023-04-18T09:22:10.132Z,13.93
2023-04-18T09:24:23.680Z,13.94
2023-04-18T09:26:38.185Z,13.99
2023-04-18T09:28:41.661Z,14.01
2023-04-18T09:30:44.820Z,14.00
2023-04-18T09:32:59.423Z,14.04
2023-04-18T09:35:05.557Z,14.06
2023-04-18T09:37:12.215Z,14.04
2023-04-18T09:39:28.606Z,14.04
2023-04-18T09:41:32.699Z,14.08
2023-04-18T09:43:35.822Z,14.10
2023-04-18T09:45:39.306Z,14.10
2023-04-18T09:47:42.364Z,14.13
2023-04-18T09:49:45.193Z,14.19
2023-04-18T09:51:50.144Z,14.23
2023-04-18T09:53:54.956Z,14.22
2023-04-18T09:55:58.933Z,14.22
2023-04-18T09:58:04.779Z,14.24
2023-04-18T10:00:14.444Z,14.24
2023-04-18T10:02:26.186Z,14.26
2023-04-18T10:04:30.558Z,14.32
2023-04-18T10:06:38.423Z,14.33
2023-04-18T10:08:41.868Z,14.33
2023-04-18T10:10:46.033Z,14.35
2023-04-18T10:12:50.769Z,14.34
2023-04-18T10:14:55.612Z,14.31
2023-04-18T10:17:02.221Z,14.30
2023-04-18T10:19:23.876Z,14.31
2023-04-18T10:21:29.975Z,14.37
2023-04-18T10:23:37.742Z,14.41
2023-04-18T10:25:52.268Z,14.44
2023-04-18T10:28:00.079Z,14.43
2023-04-18T10:30:03.090Z,14.41
2023-04-18T10:32:07.327Z,14.40
2023-04-18T10:34:17.489Z,14.41
2023-04-18T10:36:23.733Z,14.42
2023-04-18T10:38:26.612Z,14.43
2023-04-18T10:40:34.173Z,14.45
2023-04-18T10:43:02.196Z,14.46
2023-04-18T10:45:21.988Z,14.49
2023-04-18T10:47:25.027Z,14.53
2023-04-18T10:49:34.596Z,14.51
2023-04-18T10:51:37.416Z,14.51
2023-04-18T10:53:40.503Z,14.55
2023-04-18T10:55:49.708Z,14.59
2023-04-18T10:57:56.250Z,14.61
2023-04-18T11:00:00.981Z,14.64
2023-04-18T11:02:24.582Z,14.66
2023-04-18T11:04:27.602Z,14.70
2023-04-18T11:06:31.303Z,14.70
2023-04-18T11:08:34.153Z,14.71
2023-04-18T11:10:37.362Z,14.73
2023-04-18T11:12:41.504Z,14.72
2023-04-18T11:14:45.481Z,14.71
2023-04-18T11:16:49.891Z,14.70
2023-04-18T11:18:52.896Z,14.70
2023-04-18T11:20:57.445Z,14.71
2023-04-18T11:23:01.578Z,14.74
2023-04-18T11:25:09.063Z,14.78
2023-04-18T11:27:13.389Z,14.81
2023-04-18T11:29:18.363Z,14.88
2023-04-18T11:31:25.583Z,14.90
2023-04-18T11:33:30.397Z,14.91
2023-04-18T11:35:38.600Z,14.89
2023-04-18T11:37:43.029Z,14.92
2023-04-18T11:39:45.864Z,14.95
2023-04-18T11:41:51.142Z,14.97
2023-04-18T11:43:54.002Z,15.00
2023-04-18T11:45:58.003Z,15.01
2023-04-18T11:48:01.776Z,15.02
2023-04-18T11:50:07.691Z,15.05
2023-04-18T11:52:13.527Z,15.09
2023-04-18T11:54:38.474Z,15.13
2023-04-18T11:56:48.111Z,15.20
2023-04-18T11:58:51.373Z,15.26
2023-04-18T12:00:55.433Z,15.33
2023-04-18T12:02:59.133Z,15.39
2023-04-18T12:05:02.591Z,15.43
2023-04-18T12:07:07.579Z,15.45
2023-04-18T12:09:14.854Z,15.49
2023-04-18T12:11:21.553Z,15.54
2023-04-18T12:13:33.486Z,15.62
2023-04-18T12:15:40.086Z,15.67
2023-04-18T12:17:45.218Z,15.76
2023-04-18T12:19:49.768Z,15.80
2023-04-18T12:21:58.059Z,15.84
2023-04-18T12:24:15.391Z,15.87
2023-04-18T12:26:22.143Z,15.93
2023-04-18T12:28:27.834Z,15.97
2023-04-18T12:30:32.284Z,15.99
2023-04-18T12:32:35.175Z,16.04
2023-04-18T12:34:38.074Z,16.05
2023-04-18T12:36:41.022Z,16.05
2023-04-18T12:38:44.420Z,16.10
2023-04-18T12:40:48.679Z,16.13
2023-04-18T12:42:52.560Z,16.15
2023-04-18T12:44:55.326Z,16.18
2023-04-18T12:46:58.194Z,16.20
2023-04-18T12:49:01.398Z,16.23
2023-04-18T12:51:05.428Z,16.23
2023-04-18T12:53:08.176Z,16.21
2023-04-18T12:55:11.931Z,16.24
2023-04-18T12:57:16.227Z,16.27
2023-04-18T12:59:19.234Z,16.28
2023-04-18T13:01:22.304Z,16.29
2023-04-18T13:03:25.243Z,16.28
2023-04-18T13:05:33.485Z,16.28
2023-04-18T13:07:41.676Z,16.28
2023-04-18T13:09:46.685Z,16.30
2023-04-18T13:11:49.721Z,16.33
2023-04-18T13:13:54.277Z,16.36
2023-04-18T13:15:57.076Z,16.38
2023-04-18T13:18:06.846Z,16.36
2023-04-18T13:20:12.548Z,16.35
2023-04-18T13:22:15.548Z,16.37
2023-04-18T13:24:20.789Z,16.40
2023-04-18T13:26:25.922Z,16.41
2023-04-18T13:28:29.071Z,16.39
2023-04-18T13:30:35.821Z,16.40
2023-04-18T13:32:39.166Z,16.40
2023-04-18T13:34:44.523Z,16.42
2023-04-18T13:36:47.374Z,16.45
2023-04-18T13:38:50.659Z,16.47
2023-04-18T13:41:01.230Z,16.49
2023-04-18T13:43:15.449Z,16.43
2023-04-18T13:45:18.610Z,16.40
2023-04-18T13:47:23.079Z,16.38
2023-04-18T13:49:26.128Z,16.41
2023-04-18T13:51:29.893Z,16.42
2023-04-18T13:53:32.728Z,16.45
2023-04-18T13:55:36.803Z,16.46
2023-04-18T13:57:39.678Z,16.49
2023-04-18T13:59:42.448Z,16.51
2023-04-18T14:01:45.546Z,16.49
2023-04-18T14:03:50.132Z,16.52
2023-04-18T14:05:53.393Z,16.54
2023-04-18T14:08:01.847Z,16.54
2023-04-18T14:10:05.226Z,16.57
2023-04-18T14:12:08.517Z,16.61
2023-04-18T14:14:11.607Z,16.66
2023-04-18T14:16:14.863Z,16.70
2023-04-18T14:18:21.721Z,16.70
2023-04-18T14:20:26.654Z,16.72
2023-04-18T14:22:29.385Z,16.74
2023-04-18T14:24:32.329Z,16.76
2023-04-18T14:26:35.617Z,16.79
2023-04-18T14:28:40.681Z,16.83
2023-04-18T14:30:47.670Z,16.84
2023-04-18T14:32:50.694Z,16.84
2023-04-18T14:34:53.854Z,16.86
2023-04-18T14:36:58.092Z,16.88
2023-04-18T14:39:01.249Z,16.87
2023-04-18T14:41:05.336Z,16.87
2023-04-18T14:43:08.445Z,16.87
2023-04-18T14:45:12.298Z,16.91
2023-04-18T14:47:15.299Z,16.98
2023-04-18T14:49:21.062Z,17.02
2023-04-18T14:51:24.484Z,17.04
2023-04-18T14:53:28.630Z,17.08
2023-04-18T14:55:32.355Z,17.07
2023-04-18T14:57:35.884Z,17.03
2023-04-18T14:59:38.633Z,17.01
2023-04-18T15:01:41.946Z,17.00
2023-04-18T15:03:45.109Z,16.97
2023-04-18T15:05:48.982Z,16.97
2023-04-18T15:07:52.154Z,16.97
2023-04-18T15:09:56.349Z,16.98
2023-04-18T15:12:00.042Z,16.97
2023-04-18T15:14:02.867Z,16.99
2023-04-18T15:16:06.561Z,16.99
2023-04-18T15:18:12.043Z,17.02
2023-04-18T15:20:15.132Z,17.02
2023-04-18T15:22:17.994Z,17.02
2023-04-18T15:24:20.766Z,16.98
2023-04-18T15:26:26.091Z,16.93
2023-04-18T15:28:28.975Z,16.91
2023-04-18T15:30:31.991Z,16.92
2023-04-18T15:32:35.070Z,16.88
2023-04-18T15:34:37.904Z,16.89
2023-04-18T15:36:41.458Z,16.87
2023-04-18T15:38:44.451Z,16.88
2023-04-18T15:40:47.325Z,16.85
2023-04-18T15:42:54.033Z,16.82
2023-04-18T15:44:56.857Z,16.81
2023-04-18T15:47:01.141Z,16.81
2023-04-18T15:49:03.904Z,16.80
2023-04-18T15:51:06.773Z,16.77
2023-04-18T15:53:09.554Z,16.77
2023-04-18T15:55:13.369Z,16.78
2023-04-18T15:57:16.387Z,16.81
2023-04-18T15:59:20.606Z,16.88
2023-04-18T16:01:23.422Z,16.95
2023-04-18T16:03:26.445Z,17.02
2023-04-18T16:05:29.343Z,17.09
2023-04-18T16:07:32.105Z,17.15
2023-04-18T16:09:34.863Z,17.21
2023-04-18T16:11:37.807Z,17.25
2023-04-18T16:13:40.569Z,17.28
2023-04-18T16:15:44.720Z,17.31
2023-04-18T16:17:47.499Z,17.35
2023-04-18T16:19:50.285Z,17.38
2023-04-18T16:21:53.168Z,17.38
2023-04-18T16:23:55.777Z,17.39
2023-04-18T16:25:58.860Z,17.42
2023-04-18T16:28:01.771Z,17.46
2023-04-18T16:30:05.073Z,17.46
2023-04-18T16:32:09.252Z,17.46
2023-04-18T16:34:12.219Z,17.48
2023-04-18T16:36:15.429Z,17.48
2023-04-18T16:38:18.221Z,17.48
2023-04-18T16:40:21.006Z,17.45
2023-04-18T16:42:24.074Z,17.44
2023-04-18T16:44:26.853Z,17.44
2023-04-18T16:46:32.277Z,17.45
2023-04-18T16:48:38.617Z,17.45
2023-04-18T16:50:43.023Z,17.44
2023-04-18T16:52:45.776Z,17.40
2023-04-18T16:54:50.121Z,17.42
2023-04-18T16:56:55.593Z,17.45
2023-04-18T16:58:59.294Z,17.46
2023-04-18T17:01:02.651Z,17.47
2023-04-18T17:03:06.939Z,17.49
2023-04-18T17:05:12.561Z,17.52
2023-04-18T17:07:15.393Z,17.54
2023-04-18T17:09:19.733Z,17.56
2023-04-18T17:11:22.596Z,17.59
2023-04-18T17:13:26.929Z,17.62
2023-04-18T17:15:29.829Z,17.64
2023-04-18T17:17:32.655Z,17.67
2023-04-18T17:19:35.685Z,17.66
2023-04-18T17:21:39.854Z,17.67
2023-04-18T17:23:43.084Z,17.69
2023-04-18T17:25:46.176Z,17.68
2023-04-18T17:27:48.939Z,17.66
2023-04-18T17:29:51.720Z,17.67
2023-04-18T17:31:54.541Z,17.67
2023-04-18T17:33:59.920Z,17.66
2023-04-18T17:36:04.304Z,17.65
2023-04-18T17:38:10.516Z,17.65
2023-04-18T17:40:13.880Z,17.64
2023-04-18T17:42:16.692Z,17.62
2023-04-18T17:44:19.439Z,17.61
2023-04-18T17:46:22.228Z,17.60
2023-04-18T17:48:25.960Z,17.59
2023-04-18T17:50:29.031Z,17.57
2023-04-18T17:52:31.930Z,17.54
2023-04-18T17:54:36.194Z,17.52
2023-04-18T17:56:38.909Z,17.49
2023-04-18T17:58:42.143Z,17.49
2023-04-18T18:00:45.315Z,17.48
2023-04-18T18:02:48.394Z,17.44
2023-04-18T18:04:51.468Z,17.40
2023-04-18T18:06:55.593Z,17.37
2023-04-18T18:08:58.334Z,17.33
2023-04-18T18:11:02.526Z,17.30
2023-04-18T18:13:05.740Z,17.27
2023-04-18T18:15:09.743Z,17.25
2023-04-18T18:17:12.795Z,17.21
2023-04-18T18:19:16.863Z,17.19
2023-04-18T18:21:19.973Z,17.16
2023-04-18T18:23:22.737Z,17.11
2023-04-18T18:25:25.673Z,17.08
2023-04-18T18:27:29.932Z,17.03
2023-04-18T18:29:32.715Z,16.99
2023-04-18T18:31:35.713Z,16.97
2023-04-18T18:33:38.435Z,16.93
2023-04-18T18:35:41.152Z,16.90
2023-04-18T18:37:44.020Z,16.84
2023-04-18T18:39:46.816Z,16.78
2023-04-18T18:41:49.731Z,16.73
2023-04-18T18:43:54.072Z,16.71
2023-04-18T18:45:56.905Z,16.69
2023-04-18T18:47:59.656Z,16.64
2023-04-18T18:50:02.725Z,16.63
2023-04-18T18:52:06.144Z,16.60
2023-04-18T18:54:08.905Z,16.57
2023-04-18T18:56:11.773Z,16.55
2023-04-18T18:58:14.529Z,16.54
2023-04-18T19:00:19.301Z,16.52
2023-04-18T19:02:22.610Z,16.51
2023-04-18T19:04:26.000Z,16.47
2023-04-18T19:06:28.953Z,16.44
2023-04-18T19:08:31.851Z,16.42
2023-04-18T19:10:34.904Z,16.41
2023-04-18T19:12:38.542Z,16.36
2023-04-18T19:14:42.469Z,16.36
2023-04-18T19:16:47.031Z,16.34
2023-04-18T19:18:50.505Z,16.30
2023-04-18T19:20:53.298Z,16.29
2023-04-18T19:22:56.481Z,16.30
2023-04-18T19:25:00.604Z,16.30
2023-04-18T19:27:03.667Z,16.27
2023-04-18T19:29:07.657Z,16.26
2023-04-18T19:31:10.501Z,16.25
2023-04-18T19:33:14.783Z,16.24
2023-04-18T19:35:17.615Z,16.23
2023-04-18T19:37:20.342Z,16.23
2023-04-18T19:39:23.430Z,16.22
2023-04-18T19:41:26.366Z,16.21
2023-04-18T19:43:29.202Z,16.19
2023-04-18T19:45:32.543Z,16.16
2023-04-18T19:47:35.451Z,16.15
2023-04-18T19:49:39.626Z,16.15
2023-04-18T19:51:42.507Z,16.14
2023-04-18T19:53:45.315Z,16.12
2023-04-18T19:55:48.080Z,16.12
2023-04-18T19:57:56.571Z,16.12
2023-04-18T19:59:59.331Z,16.10
2023-04-18T20:02:06.062Z,16.11
2023-04-18T20:04:09.931Z,16.08
2023-04-18T20:06:14.655Z,16.09
2023-04-18T20:08:17.589Z,16.05
2023-04-18T20:10:21.876Z,16.08
2023-04-18T20:12:24.810Z,16.07
2023-04-18T20:14:28.314Z,16.05
2023-04-18T20:16:31.929Z,16.04
2023-04-18T20:18:35.791Z,16.03
2023-04-18T20:20:38.551Z,16.02
2023-04-18T20:22:44.868Z,16.00
2023-04-18T20:24:48.684Z,15.99
2023-04-18T20:26:51.545Z,15.97
2023-04-18T20:28:54.332Z,15.97
2023-04-18T20:30:57.151Z,15.96
2023-04-18T20:33:00.062Z,15.96
2023-04-18T20:35:04.446Z,15.94
2023-04-18T20:37:10.138Z,15.93
2023-04-18T20:39:15.008Z,15.92
2023-04-18T20:41:20.746Z,15.93
2023-04-18T20:43:24.434Z,15.92
2023-04-18T20:45:27.756Z,15.91
2023-04-18T20:47:30.691Z,15.90
2023-04-18T20:49:34.030Z,15.89
2023-04-18T20:51:37.994Z,15.87
2023-04-18T20:53:40.812Z,15.86
2023-04-18T20:55:44.972Z,15.85
2023-04-18T20:57:47.734Z,15.84
2023-04-18T20:59:50.633Z,15.82
2023-04-18T21:01:53.458Z,15.81
2023-04-18T21:03:56.374Z,15.79
2023-04-18T21:05:59.533Z,15.81
2023-04-18T21:08:02.329Z,15.81
2023-04-18T21:10:05.496Z,15.82
2023-04-18T21:12:09.953Z,15.80
2023-04-18T21:14:12.947Z,15.82
2023-04-18T21:16:15.818Z,15.86
2023-04-18T21:18:19.231Z,15.90
2023-04-18T21:20:22.017Z,15.90
2023-04-18T21:22:24.724Z,15.92
2023-04-18T21:24:27.707Z,15.94
2023-04-18T21:26:30.612Z,15.93
2023-04-18T21:28:34.685Z,15.94
2023-04-18T21:30:37.512Z,15.93
2023-04-18T21:32:40.312Z,15.89
2023-04-18T21:34:43.041Z,15.87
2023-04-18T21:36:46.291Z,15.87
2023-04-18T21:38:49.032Z,15.88
2023-04-18T21:40:51.729Z,15.89
2023-04-18T21:42:54.619Z,15.89
2023-04-18T21:44:58.678Z,15.87
2023-04-18T21:47:01.539Z,15.86
2023-04-18T21:49:04.431Z,15.85
2023-04-18T21:51:07.314Z,15.84
2023-04-18T21:53:10.047Z,15.84
2023-04-18T21:55:12.874Z,15.84
2023-04-18T21:57:15.775Z,15.86
2023-04-18T21:59:18.649Z,15.86
2023-04-18T22:01:23.098Z,15.85
2023-04-18T22:03:27.417Z,15.85
2023-04-18T22:05:30.547Z,15.82
2023-04-18T22:07:43.338Z,15.81
2023-04-18T22:09:53.107Z,15.82
2023-04-18T22:11:57.081Z,15.78
2023-04-18T22:14:00.364Z,15.73
2023-04-18T22:16:03.964Z,15.71
2023-04-18T22:18:08.935Z,15.72
2023-04-18T22:20:12.871Z,15.73
2023-04-18T22:22:15.839Z,15.72
2023-04-18T22:24:19.619Z,15.70
2023-04-18T22:26:22.396Z,15.67
2023-04-18T22:28:25.247Z,15.67
2023-04-18T22:30:28.159Z,15.66
2023-04-18T22:32:30.941Z,15.64
2023-04-18T22:34:35.109Z,15.64
2023-04-18T22:36:38.515Z,15.64
2023-04-18T22:38:41.282Z,15.63
2023-04-18T22:40:44.074Z,15.61
2023-04-18T22:42:46.812Z,15.59
2023-04-18T22:44:49.561Z,15.61
2023-04-18T22:46:54.733Z,15.60
2023-04-18T22:48:58.125Z,15.58
2023-04-18T22:51:02.734Z,15.58
2023-04-18T22:53:05.998Z,15.57
2023-04-18T22:55:09.537Z,15.57
2023-04-18T22:57:12.306Z,15.56
2023-04-18T22:59:15.181Z,15.56
2023-04-18T23:01:18.482Z,15.52
2023-04-18T23:03:21.458Z,15.47
2023-04-18T23:05:24.629Z,15.43
2023-04-18T23:07:28.982Z,15.43
2023-04-18T23:09:32.148Z,15.44
2023-04-18T23:11:34.928Z,15.43
2023-04-18T23:13:37.717Z,15.41
2023-04-18T23:15:40.617Z,15.37
2023-04-18T23:17:43.485Z,15.38
2023-04-18T23:19:46.238Z,15.36
2023-04-18T23:21:49.744Z,15.30
2023-04-18T23:23:53.938Z,15.30
2023-04-18T23:25:56.976Z,15.30
2023-04-18T23:28:00.051Z,15.25
2023-04-18T23:30:03.235Z,15.23
2023-04-18T23:32:06.465Z,15.22
2023-04-18T23:34:09.204Z,15.24
2023-04-18T23:36:14.189Z,15.24
2023-04-18T23:38:17.168Z,15.23
2023-04-18T23:40:21.714Z,15.25
2023-04-18T23:42:25.578Z,15.24
2023-04-18T23:44:28.438Z,15.22
2023-04-18T23:46:31.397Z,15.22
2023-04-18T23:48:34.317Z,15.21
2023-04-18T23:50:37.478Z,15.20
2023-04-18T23:52:40.510Z,15.19
2023-04-18T23:54:43.512Z,15.20
2023-04-18T23:56:47.679Z,15.19
2023-04-18T23:58:50.541Z,15.19
